Time;durP1;ratioP1;P1;durP2;ratioP2;P2;SDS_P1;SDS_P2;PMS_P1;PMS_P2;Temp;Humidity;BMP_temperature;BMP_pressure;BME280_temperature;BME280_humidity;BME280_pressure;Samples;Min_cycle;Max_cycle;Signal;HPM_P1;HPM_P2
2022/03/13 00:00:51;;;;;;;2.60;2.40;;;6.30;37.70;6.20;96402.00;;;;5113073;28;20194;-85
2022/03/13 00:03:21;;;;;;;3.87;2.33;;;6.20;37.50;6.20;96407.00;;;;5112534;28;20237;-86
2022/03/13 00:05:51;;;;;;;2.83;2.40;;;6.20;37.40;6.20;96405.00;;;;5113259;28;20730;-85
2022/03/13 00:08:24;;;;;;;4.77;2.47;;;6.20;37.40;6.20;96398.00;;;;5113269;28;20202;-86
2022/03/13 00:10:57;;;;;;;6.23;2.57;;;6.20;37.40;6.20;96400.00;;;;5113195;28;20279;-86
2022/03/13 00:13:34;;;;;;;2.87;2.37;;;6.10;37.40;6.10;96404.00;;;;5114306;28;20305;-85
2022/03/13 00:16:08;;;;;;;2.57;2.20;;;6.10;37.30;6.10;96395.00;;;;5071975;28;20198;-85
2022/03/13 00:18:36;;;;;;;3.40;2.37;;;7.00;37.70;6.10;96402.00;;;;5072827;28;20200;-86
2022/03/13 00:21:04;;;;;;;3.20;2.50;;;6.10;37.20;6.10;96407.00;;;;5072441;28;20204;-85
2022/03/13 00:23:33;;;;;;;3.67;2.80;;;6.10;37.20;6.10;96408.00;;;;5072178;28;20302;-86
2022/03/13 00:26:00;;;;;;;2.83;2.53;;;6.10;37.30;6.00;96411.00;;;;5071626;28;20203;-85
2022/03/13 00:28:29;;;;;;;2.87;2.10;;;6.10;37.40;6.00;96407.00;;;;5071993;28;20227;-86
2022/03/13 00:30:56;;;;;;;4.27;2.50;;;6.00;37.40;6.00;96399.00;;;;5071786;28;20320;-86
2022/03/13 00:33:23;;;;;;;3.10;2.27;;;6.00;37.50;6.00;96398.00;;;;5071455;28;20230;-86
2022/03/13 00:35:51;;;;;;;2.40;2.20;;;6.00;37.60;6.00;96404.00;;;;5071374;28;20283;-83
2022/03/13 00:38:19;;;;;;;4.13;2.60;;;6.00;37.60;6.00;96394.00;;;;5071463;28;20672;-84
2022/03/13 00:40:50;;;;;;;2.87;2.67;;;6.00;37.70;5.90;96392.00;;;;5070047;28;20741;-83
2022/03/13 00:43:19;;;;;;;3.00;2.50;;;5.90;37.80;5.90;96390.00;;;;5071301;28;20284;-83
2022/03/13 00:45:48;;;;;;;2.80;2.33;;;5.90;37.80;5.90;96388.00;;;;5089771;28;20596;-83
2022/03/13 00:48:15;;;;;;;3.20;2.90;;;5.90;37.80;5.80;96381.00;;;;5091980;28;20215;-83
2022/03/13 00:50:43;;;;;;;2.90;2.70;;;5.80;37.70;5.80;96377.00;;;;5091970;28;20845;-83
2022/03/13 00:53:10;;;;;;;2.50;2.30;;;5.80;37.80;5.80;96383.00;;;;5091694;28;20693;-83
2022/03/13 00:55:37;;;;;;;3.07;2.53;;;5.80;37.80;5.70;96382.00;;;;5091581;28;20241;-83
2022/03/13 00:58:04;;;;;;;3.93;2.77;;;5.70;37.90;5.70;96389.00;;;;5091727;28;20205;-83
2022/03/13 01:00:31;;;;;;;2.90;2.70;;;5.70;37.90;5.60;96382.00;;;;5091306;28;20217;-83
2022/03/13 01:03:00;;;;;;;2.90;2.30;;;5.60;38.00;5.60;96374.00;;;;5091779;28;20253;-82
2022/03/13 01:05:29;;;;;;;3.03;2.57;;;5.60;38.10;5.60;96378.00;;;;5091424;28;20249;-82
2022/03/13 01:07:59;;;;;;;3.67;2.87;;;5.60;38.20;5.50;96380.00;;;;5091418;28;20314;-83
2022/03/13 01:10:26;;;;;;;2.73;2.50;;;5.50;38.20;5.50;96372.00;;;;5091928;28;20210;-83
2022/03/13 01:12:54;;;;;;;2.33;2.13;;;5.50;38.30;5.40;96370.00;;;;5091370;28;20272;-83
2022/03/13 01:15:22;;;;;;;3.00;2.73;;;5.50;38.30;5.40;96363.00;;;;5075684;28;20212;-83
2022/03/13 01:17:50;;;;;;;2.80;2.60;;;5.40;38.40;5.40;96368.00;;;;5071158;28;20204;-83
2022/03/13 01:20:22;;;;;;;3.47;2.37;;;5.40;39.00;5.30;96362.00;;;;5071350;28;20204;-83
2022/03/13 01:22:50;;;;;;;4.40;2.40;;;5.40;38.40;5.30;96365.00;;;;5071410;28;20286;-83
2022/03/13 01:25:19;;;;;;;2.97;2.53;;;5.30;38.50;5.30;96354.00;;;;5071139;28;20766;-83
2022/03/13 01:27:46;;;;;;;2.53;2.33;;;5.30;38.50;5.30;96366.00;;;;5071101;28;20779;-83
2022/03/13 01:30:14;;;;;;;2.70;2.50;;;5.80;38.80;5.20;96352.00;;;;5071181;28;20965;-83
2022/03/13 01:32:41;;;;;;;3.60;2.67;;;5.20;38.60;5.20;96349.00;;;;5070746;28;20469;-84
2022/03/13 01:35:19;;;;;;;2.60;2.40;;;5.20;38.80;5.10;96355.00;;;;5070836;28;20588;-84
2022/03/13 01:37:48;;;;;;;3.20;2.50;;;5.20;38.90;5.10;96352.00;;;;5071263;28;20271;-84
2022/03/13 01:40:20;;;;;;;2.77;2.20;;;5.20;39.00;5.10;96349.00;;;;5071029;28;20282;-85
2022/03/13 01:42:49;;;;;;;2.57;2.20;;;5.10;39.00;5.10;96359.00;;;;5071109;28;20200;-85
2022/03/13 01:45:19;;;;;;;2.40;2.20;;;5.10;39.00;5.00;96352.00;;;;5084794;28;20804;-84
2022/03/13 01:47:48;;;;;;;3.30;2.13;;;5.10;39.00;5.00;96350.00;;;;5091406;28;21059;-83
2022/03/13 01:50:16;;;;;;;2.80;2.50;;;5.00;39.10;5.00;96338.00;;;;5091183;28;20241;-84
2022/03/13 01:52:49;;;;;;;3.63;2.90;;;5.00;39.20;4.90;96344.00;;;;5091134;28;20521;-85
2022/03/13 01:55:18;;;;;;;2.87;2.23;;;5.00;39.40;4.90;96349.00;;;;5091063;28;20581;-84
2022/03/13 01:57:47;;;;;;;2.97;2.77;;;4.90;39.40;4.90;96344.00;;;;5091542;28;20238;-84
2022/03/13 02:00:18;;;;;;;3.57;2.57;;;4.90;39.40;4.90;96336.00;;;;5091194;28;20372;-84
2022/03/13 02:02:47;;;;;;;2.57;2.37;;;4.90;39.40;4.90;96335.00;;;;5091199;28;20191;-84
2022/03/13 02:05:29;;;;;;;2.67;2.47;;;4.90;39.50;4.80;96336.00;;;;5090087;28;20223;-83
2022/03/13 02:07:59;;;;;;;2.50;2.30;;;4.90;39.60;4.80;96334.00;;;;5077731;28;20834;-83
2022/03/13 02:10:26;;;;;;;3.10;2.80;;;4.90;39.70;4.80;96332.00;;;;5088116;28;20437;-84
2022/03/13 02:12:53;;;;;;;2.80;2.60;;;4.80;39.60;4.80;96322.00;;;;5089481;28;20882;-84
2022/03/13 02:15:21;;;;;;;2.77;2.57;;;4.90;39.60;4.80;96320.00;;;;5089413;28;20437;-84
2022/03/13 02:17:48;;;;;;;3.80;2.80;;;4.80;39.60;4.80;96327.00;;;;5091075;28;20963;-84
2022/03/13 02:20:23;;;;;;;2.57;2.37;;;4.80;39.50;4.70;96328.00;;;;5090155;28;20441;-84
2022/03/13 02:22:53;;;;;;;2.53;2.33;;;4.80;39.40;4.70;96319.00;;;;5090702;28;20203;-84
2022/03/13 02:25:24;;;;;;;3.00;2.50;;;4.80;39.50;4.70;96320.00;;;;5090787;28;20429;-84
2022/03/13 02:27:51;;;;;;;4.80;2.50;;;4.70;39.60;4.70;96307.00;;;;5094208;28;20572;-84
2022/03/13 02:30:25;;;;;;;2.63;2.27;;;4.70;39.60;4.60;96316.00;;;;5094383;28;20441;-85
2022/03/13 02:32:53;;;;;;;2.63;2.27;;;4.70;39.80;4.60;96322.00;;;;5094227;28;20203;-84
2022/03/13 02:35:20;;;;;;;3.00;2.47;;;4.70;39.80;4.60;96326.00;;;;5094262;28;20275;-84
2022/03/13 02:37:49;;;;;;;2.77;2.17;;;4.70;39.80;4.60;96314.00;;;;5085946;28;20203;-84
2022/03/13 02:40:22;;;;;;;2.27;2.10;;;4.60;40.00;4.60;96313.00;;;;5074091;28;20442;-84
2022/03/13 02:42:49;;;;;;;2.80;2.53;;;4.60;40.20;4.60;96317.00;;;;5074098;28;20184;-85
2022/03/13 02:45:31;;;;;;;2.93;2.40;;;4.60;40.30;4.50;96318.00;;;;5086708;28;20468;-84
2022/03/13 02:47:59;;;;;;;3.47;2.43;;;4.60;40.60;4.50;96319.00;;;;5094618;28;20873;-84
2022/03/13 02:50:27;;;;;;;3.77;2.90;;;4.60;40.50;4.50;96319.00;;;;5094268;28;20476;-84
2022/03/13 02:52:54;;;;;;;2.80;2.60;;;4.60;40.50;4.40;96320.00;;;;5094507;28;20433;-84
2022/03/13 02:55:23;;;;;;;2.70;2.50;;;4.50;40.50;4.40;96324.00;;;;5094141;28;20437;-84
2022/03/13 02:57:50;;;;;;;2.40;2.20;;;4.50;40.40;4.40;96309.00;;;;5094209;28;20465;-84
2022/03/13 03:00:18;;;;;;;3.13;2.30;;;4.50;40.40;4.40;96308.00;;;;5094303;28;20953;-85
2022/03/13 03:02:45;;;;;;;2.63;2.43;;;4.50;40.50;4.40;96315.00;;;;5094374;28;20551;-85
2022/03/13 03:05:12;;;;;;;2.67;2.47;;;4.40;40.40;4.40;96322.00;;;;5093777;28;20973;-84
2022/03/13 03:07:40;;;;;;;3.07;2.30;;;4.90;40.70;4.40;96318.00;;;;5093841;28;20552;-84
2022/03/13 03:10:13;;;;;;;3.00;2.40;;;4.40;40.50;4.30;96324.00;;;;5094093;28;20450;-84
2022/03/13 03:12:42;;;;;;;4.00;2.27;;;4.40;40.40;4.30;96327.00;;;;5094055;28;20430;-86
2022/03/13 03:15:09;;;;;;;2.57;2.13;;;4.40;40.40;4.30;96331.00;;;;5080309;28;20840;-87
2022/03/13 03:17:36;;;;;;;2.43;2.23;;;4.30;40.30;4.30;96327.00;;;;5074382;28;20954;-86
2022/03/13 03:20:05;;;;;;;3.00;2.37;;;4.50;40.30;4.30;96332.00;;;;5073569;28;20438;-87
2022/03/13 03:22:33;;;;;;;2.53;2.33;;;4.30;40.40;4.30;96335.00;;;;5073803;28;20545;-87
2022/03/13 03:25:00;;;;;;;3.30;2.43;;;4.30;40.40;4.30;96331.00;;;;5073485;28;20463;-87
2022/03/13 03:27:30;;;;;;;3.17;2.53;;;4.30;40.50;4.30;96335.00;;;;5073558;28;21123;-86
2022/03/13 03:30:00;;;;;;;3.17;2.27;;;4.30;40.50;4.20;96329.00;;;;5073808;28;20446;-87
2022/03/13 03:32:27;;;;;;;2.93;2.53;;;4.30;40.60;4.20;96335.00;;;;5073077;28;20541;-86
2022/03/13 03:34:54;;;;;;;2.93;2.40;;;4.30;40.50;4.20;96335.00;;;;5072975;28;20870;-87
2022/03/13 03:37:23;;;;;;;3.63;2.77;;;4.30;40.70;4.20;96334.00;;;;5072791;28;21014;-87
2022/03/13 03:39:50;;;;;;;2.87;2.43;;;4.30;40.70;4.20;96330.00;;;;5073046;28;20545;-87
2022/03/13 03:42:17;;;;;;;3.70;2.37;;;4.20;40.70;4.20;96336.00;;;;5072959;28;20534;-86
2022/03/13 03:44:44;;;;;;;2.63;2.43;;;4.20;40.70;4.10;96339.00;;;;5082617;28;20493;-87
2022/03/13 03:47:13;;;;;;;3.77;2.60;;;4.20;40.90;4.10;96335.00;;;;5092866;28;20520;-87
2022/03/13 03:49:40;;;;;;;3.63;2.63;;;4.20;40.90;4.10;96343.00;;;;5093410;28;20465;-87
2022/03/13 03:52:08;;;;;;;3.20;2.50;;;4.20;41.10;4.10;96345.00;;;;5092930;28;20524;-88
2022/03/13 03:54:36;;;;;;;2.47;2.27;;;4.20;41.10;4.10;96340.00;;;;5092648;28;20470;-87
2022/03/13 03:57:03;;;;;;;4.67;2.70;;;4.10;40.90;4.00;96338.00;;;;5092616;28;20472;-87
2022/03/13 03:59:31;;;;;;;2.90;2.53;;;4.10;41.00;4.00;96334.00;;;;5092616;28;20441;-87
2022/03/13 04:01:58;;;;;;;4.50;3.03;;;4.20;41.30;4.00;96334.00;;;;5092877;28;20445;-87
2022/03/13 04:04:27;;;;;;;2.83;2.50;;;4.10;41.80;4.00;96332.00;;;;5092397;28;20745;-87
2022/03/13 04:06:54;;;;;;;2.53;2.33;;;4.10;41.30;4.00;96339.00;;;;5092581;28;20429;-86
2022/03/13 04:09:21;;;;;;;2.67;2.47;;;4.10;41.20;4.00;96337.00;;;;5092394;28;20569;-88
2022/03/13 04:11:49;;;;;;;2.97;2.70;;;4.10;41.10;3.90;96337.00;;;;5092403;28;21001;-86
2022/03/13 04:14:18;;;;;;;2.97;2.50;;;4.00;41.00;3.90;96336.00;;;;5091645;28;20830;-86
2022/03/13 04:16:45;;;;;;;2.77;2.57;;;4.00;40.90;3.90;96339.00;;;;5100773;28;20429;-88
2022/03/13 04:19:12;;;;;;;2.53;2.33;;;4.00;40.70;3.90;96348.00;;;;5092573;28;20464;-87
2022/03/13 04:21:42;;;;;;;4.00;2.80;;;4.00;40.70;3.90;96343.00;;;;5092365;28;20499;-88
2022/03/13 04:24:11;;;;;;;2.53;2.33;;;5.00;41.10;3.90;96338.00;;;;5092281;28;20460;-88
2022/03/13 04:26:39;;;;;;;3.40;2.73;;;4.00;40.50;3.90;96341.00;;;;5092252;28;20438;-87
2022/03/13 04:29:09;;;;;;;2.50;2.30;;;4.00;40.50;3.90;96340.00;;;;5091987;28;20651;-88
2022/03/13 04:31:37;;;;;;;3.73;2.20;;;4.00;40.50;3.90;96344.00;;;;5091957;28;20444;-87
2022/03/13 04:34:05;;;;;;;2.63;2.40;;;4.00;40.60;3.90;96341.00;;;;5091643;28;20528;-87
2022/03/13 04:36:33;;;;;;;3.27;2.97;;;4.00;40.70;3.90;96337.00;;;;5092197;28;20797;-88
2022/03/13 04:39:02;;;;;;;3.40;2.70;;;4.00;40.60;3.90;96350.00;;;;5092044;28;20445;-87
2022/03/13 04:41:29;;;;;;;3.17;2.40;;;4.00;40.60;3.90;96350.00;;;;5092007;28;20425;-88
2022/03/13 04:43:56;;;;;;;3.93;2.63;;;4.00;40.70;3.90;96354.00;;;;5091677;28;20461;-88
2022/03/13 04:46:24;;;;;;;3.27;2.90;;;4.00;40.70;3.90;96357.00;;;;5091929;28;20461;-88
2022/03/13 04:48:51;;;;;;;3.10;2.57;;;4.00;40.80;3.90;96347.00;;;;5091635;28;20558;-87
2022/03/13 04:51:18;;;;;;;3.10;2.87;;;3.90;40.70;3.90;96354.00;;;;5092014;28;20445;-88
2022/03/13 04:53:45;;;;;;;2.63;2.43;;;3.90;40.70;3.90;96353.00;;;;5091813;28;20532;-87
2022/03/13 04:56:14;;;;;;;3.27;2.73;;;3.90;40.80;3.90;96359.00;;;;5091607;28;20475;-88
2022/03/13 04:58:44;;;;;;;4.67;2.80;;;3.90;40.70;3.90;96354.00;;;;5091955;28;20525;-88
2022/03/13 05:01:11;;;;;;;3.00;2.53;;;3.90;40.70;3.90;96360.00;;;;5088744;28;20454;-88
2022/03/13 05:03:44;;;;;;;3.30;2.50;;;3.90;40.60;3.80;96360.00;;;;5100260;28;20452;-88
2022/03/13 05:06:13;;;;;;;3.27;2.87;;;3.90;40.70;3.80;96364.00;;;;5092021;28;20605;-88
2022/03/13 05:08:44;;;;;;;2.67;2.43;;;3.90;40.80;3.80;96362.00;;;;5111055;28;20543;-88
2022/03/13 05:11:14;;;;;;;3.10;2.80;;;3.90;40.90;3.80;96374.00;;;;5111751;28;20448;-87
2022/03/13 05:13:41;;;;;;;2.80;2.57;;;3.90;41.50;3.80;96370.00;;;;5112172;28;21056;-88
2022/03/13 05:16:08;;;;;;;3.03;2.70;;;3.90;41.00;3.80;96366.00;;;;5112046;28;20462;-88
2022/03/13 05:18:36;;;;;;;3.30;3.00;;;3.90;41.00;3.80;96363.00;;;;5111686;28;20516;-88
2022/03/13 05:21:04;;;;;;;2.70;2.23;;;3.80;41.10;3.80;96378.00;;;;5097777;28;20868;-87
2022/03/13 05:23:31;;;;;;;4.47;2.87;;;4.00;41.20;3.70;96384.00;;;;5091571;28;20933;-88
2022/03/13 05:25:58;;;;;;;3.73;2.53;;;3.80;41.00;3.70;96382.00;;;;5091295;28;20433;-87
2022/03/13 05:28:27;;;;;;;3.00;2.70;;;3.80;41.10;3.70;96389.00;;;;5091573;28;21007;-88
2022/03/13 05:30:54;;;;;;;3.30;2.63;;;3.80;41.10;3.70;96385.00;;;;5091592;28;20441;-86
2022/03/13 05:33:21;;;;;;;2.70;2.50;;;3.80;41.10;3.70;96384.00;;;;5076545;22;20995;-85
2022/03/13 05:35:48;;;;;;;2.80;2.60;;;3.80;41.70;3.70;96390.00;;;;5034183;28;20468;-86
2022/03/13 05:38:16;;;;;;;3.53;2.60;;;3.80;41.30;3.70;96388.00;;;;5034148;28;20441;-84
2022/03/13 05:40:43;;;;;;;3.53;2.60;;;3.80;41.30;3.70;96392.00;;;;5033996;28;20497;-85
2022/03/13 05:43:11;;;;;;;2.83;2.57;;;3.80;41.50;3.70;96401.00;;;;5035567;28;20960;-84
2022/03/13 05:45:41;;;;;;;3.00;2.70;;;3.80;41.60;3.70;96390.00;;;;5034017;28;20448;-84
2022/03/13 05:48:13;;;;;;;3.03;2.40;;;3.80;41.60;3.70;96387.00;;;;5034872;28;21024;-85
2022/03/13 05:50:40;;;;;;;3.33;2.83;;;3.80;41.60;3.70;96389.00;;;;5034592;28;20516;-85
2022/03/13 05:53:07;;;;;;;3.00;2.70;;;3.70;41.60;3.70;96390.00;;;;5034624;28;20472;-84
2022/03/13 05:55:34;;;;;;;4.17;2.77;;;3.70;41.60;3.70;96393.00;;;;5034437;28;20523;-85
2022/03/13 05:58:02;;;;;;;3.37;2.87;;;3.60;41.60;3.70;96401.00;;;;5033531;28;20440;-85
2022/03/13 06:00:32;;;;;;;2.73;2.53;;;3.70;41.70;3.70;96405.00;;;;5034417;28;20539;-85
2022/03/13 06:03:01;;;;;;;2.50;2.30;;;3.70;41.60;3.70;96406.00;;;;5038025;28;20440;-85
2022/03/13 06:05:35;;;;;;;2.70;2.50;;;3.70;41.40;3.70;96402.00;;;;5037906;28;20952;-85
2022/03/13 06:08:03;;;;;;;2.87;2.63;;;3.70;41.40;3.70;96401.00;;;;5038237;28;20566;-85
2022/03/13 06:10:31;;;;;;;3.03;2.70;;;3.80;41.40;3.70;96409.00;;;;5037291;28;20494;-85
2022/03/13 06:12:58;;;;;;;4.50;2.90;;;3.80;41.40;3.80;96407.00;;;;5037899;28;20451;-84
2022/03/13 06:15:25;;;;;;;3.17;2.87;;;3.80;41.50;3.80;96411.00;;;;5036792;28;20783;-85
2022/03/13 06:17:53;;;;;;;4.37;2.90;;;3.80;41.50;3.80;96410.00;;;;5038738;28;20428;-85
2022/03/13 06:20:22;;;;;;;2.70;2.50;;;3.80;41.30;3.80;96408.00;;;;5037881;28;20471;-85
2022/03/13 06:22:49;;;;;;;3.17;2.83;;;3.80;41.30;3.80;96419.00;;;;5038574;28;20468;-85
2022/03/13 06:25:18;;;;;;;3.37;2.73;;;3.90;41.30;3.90;96414.00;;;;5038299;28;20912;-85
2022/03/13 06:27:46;;;;;;;4.20;3.23;;;3.90;41.50;3.90;96410.00;;;;5038254;28;20833;-85
2022/03/13 06:30:16;;;;;;;3.67;2.53;;;3.90;41.50;3.90;96424.00;;;;5038554;28;20528;-85
2022/03/13 06:32:46;;;;;;;2.60;2.40;;;3.90;41.50;4.00;96425.00;;;;5037938;28;20464;-84
2022/03/13 06:35:15;;;;;;;3.60;2.80;;;4.00;41.50;4.00;96426.00;;;;5037981;28;20539;-85
2022/03/13 06:37:44;;;;;;;3.17;2.77;;;4.00;41.30;4.00;96421.00;;;;5036483;28;20439;-86
2022/03/13 06:40:13;;;;;;;3.53;3.23;;;4.00;41.30;4.10;96427.00;;;;5037784;28;20428;-85
2022/03/13 06:42:40;;;;;;;3.10;2.70;;;4.00;41.30;4.10;96426.00;;;;5037601;28;20844;-85
2022/03/13 06:45:10;;;;;;;2.63;2.43;;;4.10;41.40;4.10;96431.00;;;;5050424;28;21108;-85
2022/03/13 06:47:38;;;;;;;2.57;2.37;;;4.10;41.90;4.20;96434.00;;;;5057459;28;20455;-85
2022/03/13 06:50:07;;;;;;;2.83;2.57;;;4.20;41.30;4.20;96433.00;;;;5056926;28;20563;-85
2022/03/13 06:52:37;;;;;;;3.17;2.70;;;4.20;41.20;4.20;96444.00;;;;5056819;28;20439;-86
2022/03/13 06:55:08;;;;;;;3.97;3.40;;;4.20;41.10;4.30;96432.00;;;;5056304;28;20463;-85
2022/03/13 06:57:36;;;;;;;3.00;2.67;;;4.30;41.20;4.40;96429.00;;;;5056103;28;20977;-85
2022/03/13 07:00:04;;;;;;;2.77;2.53;;;4.30;41.20;4.40;96437.00;;;;5056311;28;20470;-85
2022/03/13 07:02:31;;;;;;;3.00;2.60;;;4.30;41.20;4.40;96433.00;;;;5056981;28;20509;-85
2022/03/13 07:04:58;;;;;;;3.23;2.80;;;4.40;41.00;4.50;96451.00;;;;5056817;28;20315;-85
2022/03/13 07:07:26;;;;;;;3.27;2.83;;;4.40;41.00;4.50;96446.00;;;;5057885;28;20463;-85
2022/03/13 07:09:53;;;;;;;2.97;2.67;;;4.50;41.10;4.60;96445.00;;;;5057594;28;20225;-85
2022/03/13 07:12:22;;;;;;;3.43;2.77;;;4.50;41.00;4.60;96444.00;;;;5057201;28;20469;-85
2022/03/13 07:14:49;;;;;;;3.00;2.70;;;4.60;41.00;4.70;96448.00;;;;5047640;28;20283;-86
2022/03/13 07:17:17;;;;;;;3.53;2.83;;;4.60;40.90;4.70;96450.00;;;;5038371;28;20280;-86
2022/03/13 07:19:53;;;;;;;3.50;3.10;;;4.70;40.90;4.80;96446.00;;;;5038289;28;20209;-85
2022/03/13 07:22:20;;;;;;;3.00;2.80;;;4.70;40.90;4.90;96458.00;;;;5038007;28;20956;-85
2022/03/13 07:24:47;;;;;;;3.13;2.60;;;4.80;40.80;5.00;96458.00;;;;5038296;28;20271;-86
2022/03/13 07:27:15;;;;;;;3.60;2.77;;;4.90;40.70;5.00;96466.00;;;;5037872;28;20194;-87
2022/03/13 07:29:44;;;;;;;3.30;3.00;;;4.80;40.70;5.10;96462.00;;;;5036121;28;20221;-87
2022/03/13 07:32:12;;;;;;;2.83;2.63;;;5.00;40.90;5.20;96462.00;;;;5037491;28;20764;-87
2022/03/13 07:34:42;;;;;;;3.33;2.80;;;5.10;41.00;5.30;96466.00;;;;5037964;28;20332;-84
2022/03/13 07:37:10;;;;;;;4.00;2.97;;;5.20;41.40;5.30;96466.00;;;;5038230;28;20220;-87
2022/03/13 07:39:38;;;;;;;3.37;3.07;;;5.20;40.80;5.40;96467.00;;;;5035735;28;20198;-86
2022/03/13 07:42:06;;;;;;;4.37;2.90;;;5.30;40.90;5.50;96474.00;;;;5037987;28;20206;-86
2022/03/13 07:44:33;;;;;;;3.83;3.33;;;5.40;40.90;5.60;96469.00;;;;5033362;28;20218;-86
2022/03/13 07:47:02;;;;;;;4.53;3.10;;;5.40;40.80;5.60;96472.00;;;;5018079;28;20232;-86
2022/03/13 07:49:30;;;;;;;3.57;2.80;;;5.50;41.00;5.70;96468.00;;;;5017760;28;20308;-85
2022/03/13 07:51:58;;;;;;;3.53;2.87;;;5.60;41.00;5.90;96466.00;;;;5019443;28;20224;-85
2022/03/13 07:54:25;;;;;;;3.73;3.37;;;5.70;40.90;6.10;96472.00;;;;5018330;28;20218;-86
2022/03/13 07:56:53;;;;;;;4.80;3.33;;;6.10;41.10;6.20;96470.00;;;;5019186;28;20686;-86
2022/03/13 07:59:20;;;;;;;3.23;2.93;;;6.00;41.70;6.40;96480.00;;;;5018620;28;20239;-86
2022/03/13 08:01:47;;;;;;;3.23;2.93;;;6.20;41.50;6.70;96470.00;;;;5018621;28;20214;-86
2022/03/13 08:04:16;;;;;;;3.33;2.73;;;6.30;41.40;6.90;96480.00;;;;5018601;28;20320;-86
2022/03/13 08:06:44;;;;;;;3.87;2.87;;;6.50;41.40;7.10;96484.00;;;;5018074;28;20225;-86
2022/03/13 08:09:11;;;;;;;3.83;3.30;;;6.70;41.50;7.30;96472.00;;;;5017344;28;20238;-86
2022/03/13 08:11:39;;;;;;;4.53;3.20;;;6.90;41.50;7.60;96476.00;;;;5017263;28;20206;-87
2022/03/13 08:14:08;;;;;;;4.70;3.27;;;7.10;41.40;7.80;96476.00;;;;5021797;28;20255;-84
2022/03/13 08:16:36;;;;;;;3.50;3.20;;;7.30;41.50;8.00;96475.00;;;;5037168;28;20197;-84
2022/03/13 08:19:03;;;;;;;3.17;2.90;;;7.50;41.30;8.20;96475.00;;;;5037389;28;20224;-85
2022/03/13 08:21:32;;;;;;;4.40;2.83;;;7.70;41.30;8.50;96489.00;;;;5037617;28;20644;-87
2022/03/13 08:23:59;;;;;;;3.37;3.03;;;7.90;41.20;8.70;96484.00;;;;5032830;28;20209;-83
2022/03/13 08:26:27;;;;;;;3.30;2.90;;;8.10;41.10;9.00;96488.00;;;;5040530;28;20198;-84
2022/03/13 08:28:54;;;;;;;3.20;2.90;;;8.30;40.80;9.20;96490.00;;;;5040720;28;20221;-84
2022/03/13 08:31:22;;;;;;;3.93;3.17;;;8.50;40.90;9.40;96493.00;;;;5039579;28;20224;-84
2022/03/13 08:33:50;;;;;;;4.27;3.00;;;8.70;40.60;9.70;96500.00;;;;5039824;28;20229;-84
2022/03/13 08:36:17;;;;;;;4.20;3.17;;;9.00;40.50;9.90;96493.00;;;;5039564;28;20255;-83
2022/03/13 08:38:46;;;;;;;5.37;2.83;;;9.20;40.40;10.20;96491.00;;;;5040275;28;20201;-83
2022/03/13 08:41:14;;;;;;;3.57;3.00;;;9.40;40.30;10.50;96495.00;;;;5038586;28;20571;-83
2022/03/13 08:43:41;;;;;;;3.57;3.13;;;9.60;40.80;10.70;96491.00;;;;5039759;28;20646;-83
2022/03/13 08:46:10;;;;;;;3.40;3.10;;;9.80;40.00;11.00;96485.00;;;;5059486;28;20196;-86
2022/03/13 08:48:37;;;;;;;3.43;2.83;;;10.10;39.90;11.30;96484.00;;;;5059621;28;20204;-86
2022/03/13 08:51:04;;;;;;;3.80;3.40;;;10.30;39.90;11.60;96490.00;;;;5059682;28;20196;-84
2022/03/13 08:53:32;;;;;;;3.40;3.10;;;10.50;39.80;11.90;96492.00;;;;5058858;28;20251;-83
2022/03/13 08:56:02;;;;;;;4.23;3.80;;;10.70;39.60;12.20;96495.00;;;;5059379;28;20200;-84
2022/03/13 08:58:30;;;;;;;3.57;3.23;;;10.90;39.50;12.60;96484.00;;;;5058762;28;20184;-84
2022/03/13 09:00:57;;;;;;;3.60;2.93;;;11.30;39.60;12.90;96490.00;;;;5059210;28;20268;-84
2022/03/13 09:03:26;;;;;;;3.77;3.47;;;11.60;39.60;13.30;96494.00;;;;5059057;28;20586;-84
2022/03/13 09:05:54;;;;;;;3.30;3.00;;;12.00;39.00;13.70;96492.00;;;;5056508;28;20624;-83
2022/03/13 09:08:22;;;;;;;3.57;3.20;;;12.40;39.20;14.10;96498.00;;;;5054227;28;20196;-83
2022/03/13 09:15:51;;;;;;;3.80;3.27;;;13.40;38.40;15.00;96515.00;;;;4833230;29;20259;-84
2022/03/13 09:18:19;;;;;;;2.93;2.70;;;14.20;38.20;15.40;96508.00;;;;4849634;29;20213;-85
2022/03/13 09:20:46;;;;;;;3.97;3.20;;;15.00;38.60;15.70;96519.00;;;;4958223;29;20267;-85
2022/03/13 09:23:14;;;;;;;3.83;3.40;;;15.60;38.00;16.00;96520.00;;;;4999531;28;20281;-86
2022/03/13 09:25:41;;;;;;;3.50;3.20;;;16.30;38.20;16.40;96512.00;;;;5014724;28;20206;-87
2022/03/13 09:28:08;;;;;;;3.50;3.20;;;16.80;36.70;16.70;96516.00;;;;5011796;28;20288;-87
2022/03/13 09:30:36;;;;;;;4.23;3.67;;;17.30;36.10;17.00;96521.00;;;;5013255;28;20217;-87
2022/03/13 09:33:04;;;;;;;5.80;4.10;;;17.80;35.10;17.20;96518.00;;;;5013191;28;20214;-86
2022/03/13 09:35:32;;;;;;;4.10;3.70;;;18.10;33.10;17.40;96525.00;;;;5012957;28;20217;-86
2022/03/13 09:38:00;;;;;;;3.53;3.23;;;18.40;33.20;17.60;96525.00;;;;5016980;28;20229;-87
2022/03/13 09:40:28;;;;;;;3.93;3.30;;;18.60;32.80;17.80;96518.00;;;;5017854;28;20237;-87
2022/03/13 09:42:56;;;;;;;3.83;3.53;;;18.80;32.50;18.00;96521.00;;;;5016702;28;20201;-87
2022/03/13 09:45:23;;;;;;;4.53;4.07;;;18.90;32.10;18.10;96523.00;;;;5031566;28;20284;-86
2022/03/13 09:47:52;;;;;;;3.97;3.60;;;18.90;31.30;18.20;96518.00;;;;5036424;28;20212;-87
2022/03/13 09:50:21;;;;;;;4.60;4.20;;;18.90;30.30;18.30;96522.00;;;;5036552;28;20252;-86
2022/03/13 09:52:50;;;;;;;3.93;3.53;;;18.90;30.90;18.40;96529.00;;;;5037369;28;20204;-86
2022/03/13 09:55:17;;;;;;;3.83;3.50;;;18.90;31.10;18.50;96527.00;;;;5034817;28;20231;-86
2022/03/13 09:57:48;;;;;;;4.00;3.53;;;18.80;31.10;18.50;96530.00;;;;5036052;28;20197;-86
2022/03/13 10:00:20;;;;;;;4.20;3.80;;;18.80;31.00;18.60;96527.00;;;;5034979;28;20224;-87
2022/03/13 10:02:47;;;;;;;4.27;3.87;;;18.70;31.00;18.60;96521.00;;;;5035638;28;20201;-87
2022/03/13 10:05:17;;;;;;;4.07;3.77;;;18.70;31.00;18.60;96522.00;;;;5035705;28;20772;-85
2022/03/13 10:08:01;;;;;;;4.50;4.10;;;18.60;31.00;18.60;96517.00;;;;5035198;28;20255;-86
2022/03/13 10:10:30;;;;;;;4.40;4.00;;;18.60;30.90;18.60;96525.00;;;;5035879;28;20247;-85
2022/03/13 10:13:00;;;;;;;3.97;3.60;;;18.60;30.80;18.60;96522.00;;;;5036080;28;20209;-85
2022/03/13 10:15:28;;;;;;;5.00;3.53;;;18.70;31.10;18.60;96517.00;;;;5036170;28;20221;-85
2022/03/13 10:17:59;;;;;;;4.07;3.77;;;18.80;31.00;18.60;96510.00;;;;5038113;28;20201;-85
2022/03/13 10:20:28;;;;;;;4.70;3.93;;;18.90;31.20;18.60;96510.00;;;;5037295;28;20205;-85
2022/03/13 10:23:10;;;;;;;6.10;4.37;;;19.10;31.20;18.70;96511.00;;;;5037820;28;20193;-85
2022/03/13 10:25:41;;;;;;;4.30;3.90;;;19.30;29.80;18.70;96507.00;;;;5036775;28;20197;-85
2022/03/13 10:28:20;;;;;;;4.43;4.03;;;19.40;30.40;18.60;96510.00;;;;5036840;28;20666;-85
2022/03/13 10:31:05;;;;;;;6.07;4.40;;;19.50;29.70;18.60;96502.00;;;;5035558;28;20304;-85
2022/03/13 10:34:00;;;;;;;4.60;4.00;;;19.60;29.70;18.70;96504.00;;;;5035701;28;20756;-85
2022/03/13 10:36:35;;;;;;;4.33;3.93;;;19.80;29.90;18.80;96495.00;;;;5035274;28;20202;-86
2022/03/13 10:39:11;;;;;;;4.13;3.73;;;19.90;30.40;18.90;96504.00;;;;5035425;28;20196;-85
2022/03/13 10:41:45;;;;;;;5.57;4.30;;;20.00;30.20;19.00;96499.00;;;;5035379;28;20280;-85
2022/03/13 10:44:17;;;;;;;4.63;4.23;;;20.20;29.60;19.00;96490.00;;;;5037714;28;20221;-83
2022/03/13 10:46:47;;;;;;;4.87;4.03;;;20.30;29.50;19.10;96497.00;;;;5039487;28;20182;-83
2022/03/13 10:49:15;;;;;;;4.83;4.33;;;20.30;29.30;19.10;96494.00;;;;5038005;28;20247;-83
2022/03/13 10:51:46;;;;;;;4.70;4.30;;;20.40;29.30;19.10;96498.00;;;;5038026;28;20506;-83
2022/03/13 10:54:30;;;;;;;4.20;3.80;;;20.40;29.00;19.20;96495.00;;;;5038043;28;20323;-83
2022/03/13 10:57:08;;;;;;;4.57;4.17;;;20.40;29.30;19.20;96487.00;;;;5038191;28;20193;-83
2022/03/13 10:59:36;;;;;;;4.63;3.93;;;20.40;29.30;19.30;96487.00;;;;5037572;28;20251;-83
2022/03/13 11:02:15;;;;;;;5.87;4.47;;;20.30;29.30;19.30;96478.00;;;;5036407;28;20316;-83
2022/03/13 11:04:55;;;;;;;5.23;4.47;;;20.20;29.20;19.40;96493.00;;;;5037062;28;20281;-83
2022/03/13 11:07:24;;;;;;;5.77;4.87;;;20.10;29.00;19.30;96477.00;;;;5038031;28;20186;-83
2022/03/13 11:09:52;;;;;;;7.60;4.60;;;19.90;28.90;19.20;96470.00;;;;5037297;28;20225;-83
2022/03/13 11:12:20;;;;;;;5.23;4.70;;;19.70;29.20;19.10;96473.00;;;;5038087;28;20207;-83
2022/03/13 11:14:50;;;;;;;5.33;4.80;;;19.50;28.80;19.00;96475.00;;;;5037867;28;20271;-83
2022/03/13 11:17:19;;;;;;;5.27;4.60;;;19.40;28.90;18.90;96469.00;;;;5038095;28;20201;-82
2022/03/13 11:19:49;;;;;;;5.37;4.63;;;19.20;29.00;18.80;96468.00;;;;5037292;28;20201;-83